createdAt,value
2022-08-27T00:01:19.491Z,98595.36
2022-08-27T00:03:50.655Z,98593.65
2022-08-27T00:06:22.808Z,98591.36
2022-08-27T00:08:54.642Z,98601.02
2022-08-27T00:11:26.796Z,98601.41
2022-08-27T00:13:57.984Z,98597.98
2022-08-27T00:16:29.149Z,98590.13
2022-08-27T00:19:00.895Z,98590.04
2022-08-27T00:21:33.211Z,98590.61
2022-08-27T00:24:04.844Z,98585.11
2022-08-27T00:26:39.090Z,98584.56
2022-08-27T00:29:13.138Z,98592.34
2022-08-27T00:31:44.068Z,98593.73
2022-08-27T00:34:15.046Z,98593.80
2022-08-27T00:36:46.294Z,98593.81
2022-08-27T00:39:17.458Z,98601.98
2022-08-27T00:41:48.697Z,98591.89
2022-08-27T00:44:19.737Z,98593.51
2022-08-27T00:46:53.787Z,98601.34
2022-08-27T00:49:36.131Z,98595.95
2022-08-27T00:52:13.070Z,98611.64
2022-08-27T00:54:43.995Z,98636.42
2022-08-27T00:57:16.774Z,98659.42
2022-08-27T00:59:48.221Z,98661.17
2022-08-27T01:02:26.201Z,98668.44
2022-08-27T01:05:01.670Z,98694.20
2022-08-27T01:07:37.442Z,98712.58
2022-08-27T01:10:12.883Z,98719.04
2022-08-27T01:12:44.372Z,98713.93
2022-08-27T01:15:26.935Z,98726.11
2022-08-27T01:17:57.140Z,98727.71
2022-08-27T01:20:31.329Z,98726.63
2022-08-27T01:23:12.851Z,98729.32
2022-08-27T01:25:47.933Z,98738.80
2022-08-27T01:28:23.184Z,98736.52
2022-08-27T01:30:57.526Z,98716.40
2022-08-27T01:33:28.296Z,98701.30
2022-08-27T01:35:59.336Z,98699.80
2022-08-27T01:38:31.779Z,98699.93
2022-08-27T01:41:03.678Z,98704.45
2022-08-27T01:43:34.520Z,98693.18
2022-08-27T01:46:06.385Z,98675.59
2022-08-27T01:48:37.223Z,98665.40
2022-08-27T01:51:09.898Z,98644.04
2022-08-27T01:53:40.745Z,98629.53
2022-08-27T01:56:12.200Z,98625.02
2022-08-27T01:58:43.824Z,98620.55
2022-08-27T02:01:17.779Z,98617.08
2022-08-27T02:03:48.645Z,98618.73
2022-08-27T02:06:19.859Z,98610.61
2022-08-27T02:08:51.007Z,98602.61
2022-08-27T02:11:22.057Z,98599.30
2022-08-27T02:13:52.996Z,98600.47
2022-08-27T02:16:24.010Z,98603.17
2022-08-27T02:18:55.189Z,98602.65
2022-08-27T02:21:27.432Z,98604.30
2022-08-27T02:23:58.355Z,98619.46
2022-08-27T02:26:29.450Z,98641.31
2022-08-27T02:29:00.952Z,98657.58
2022-08-27T02:31:31.917Z,98669.20
2022-08-27T02:34:03.198Z,98676.95
2022-08-27T02:36:34.227Z,98687.90
2022-08-27T02:39:05.705Z,98689.40
2022-08-27T02:41:36.743Z,98691.15
2022-08-27T02:44:10.141Z,98689.88
2022-08-27T02:46:42.381Z,98680.05
2022-08-27T02:49:13.880Z,98682.11
2022-08-27T02:51:45.020Z,98680.26
2022-08-27T02:54:15.859Z,98673.73
2022-08-27T02:56:46.964Z,98670.65
2022-08-27T02:59:18.410Z,98662.09
2022-08-27T03:01:49.642Z,98657.86
2022-08-27T03:04:21.135Z,98651.98
2022-08-27T03:06:52.211Z,98649.88
2022-08-27T03:09:23.465Z,98647.83
2022-08-27T03:11:55.264Z,98649.94
2022-08-27T03:14:25.999Z,98656.52
2022-08-27T03:17:17.168Z,98662.45
2022-08-27T03:19:49.232Z,98662.91
2022-08-27T03:22:20.111Z,98666.56
2022-08-27T03:24:50.844Z,98671.99
2022-08-27T03:27:21.702Z,98675.15
2022-08-27T03:29:52.491Z,98676.73
2022-08-27T03:32:23.331Z,98660.46
2022-08-27T03:34:54.173Z,98648.11
2022-08-27T03:37:24.950Z,98636.08
2022-08-27T03:39:56.599Z,98623.01
2022-08-27T03:42:27.613Z,98619.17
2022-08-27T03:44:58.896Z,98624.16
2022-08-27T03:47:29.841Z,98618.65
2022-08-27T03:50:01.162Z,98607.11
2022-08-27T03:52:34.454Z,98609.66
2022-08-27T03:55:06.323Z,98616.65
2022-08-27T03:57:37.466Z,98617.73
2022-08-27T04:00:11.960Z,98624.80
2022-08-27T04:02:44.222Z,98630.02
2022-08-27T04:05:15.973Z,98640.38
2022-08-27T04:07:47.126Z,98656.27
2022-08-27T04:10:19.942Z,98660.80
2022-08-27T04:12:51.104Z,98661.88
2022-08-27T04:15:25.221Z,98666.13
2022-08-27T04:17:55.959Z,98661.67
2022-08-27T04:20:35.966Z,98658.42
2022-08-27T04:23:07.157Z,98654.05
2022-08-27T04:25:40.032Z,98645.73
2022-08-27T04:28:11.703Z,98642.92
2022-08-27T04:30:45.519Z,98644.25
2022-08-27T04:33:16.820Z,98636.67
2022-08-27T04:35:47.740Z,98633.06
2022-08-27T04:38:18.750Z,98630.68
2022-08-27T04:41:07.192Z,98634.71
2022-08-27T04:43:38.134Z,98636.73
2022-08-27T04:46:10.034Z,98636.38
2022-08-27T04:48:41.349Z,98640.40
2022-08-27T04:51:12.518Z,98645.89
2022-08-27T04:53:45.587Z,98652.27
2022-08-27T04:56:20.011Z,98660.27
2022-08-27T04:58:51.875Z,98662.16
2022-08-27T05:01:24.944Z,98663.66
2022-08-27T05:03:56.534Z,98662.68
2022-08-27T05:06:28.591Z,98665.82
2022-08-27T05:08:59.536Z,98668.77
2022-08-27T05:11:34.542Z,98667.42
2022-08-27T05:14:07.767Z,98671.80
2022-08-27T05:16:39.218Z,98665.43
2022-08-27T05:19:14.799Z,98664.04
2022-08-27T05:21:49.737Z,98663.13
2022-08-27T05:24:21.058Z,98659.00
2022-08-27T05:26:52.796Z,98656.88
2022-08-27T05:29:24.375Z,98658.52
2022-08-27T05:31:55.927Z,98660.11
2022-08-27T05:34:26.975Z,98657.73
2022-08-27T05:36:58.734Z,98658.34
2022-08-27T05:39:29.940Z,98661.16
2022-08-27T05:42:01.034Z,98665.45
2022-08-27T05:44:47.069Z,98669.08
2022-08-27T05:47:18.403Z,98666.03
2022-08-27T05:49:49.405Z,98663.98
2022-08-27T05:52:20.560Z,98664.03
2022-08-27T05:54:51.439Z,98667.36
2022-08-27T05:57:22.345Z,98666.70
2022-08-27T06:00:15.787Z,98671.66
2022-08-27T06:02:47.078Z,98678.31
2022-08-27T06:05:18.360Z,98681.81
2022-08-27T06:07:49.445Z,98680.77
2022-08-27T06:10:20.696Z,98679.39
2022-08-27T06:12:56.301Z,98682.45
2022-08-27T06:15:28.007Z,98685.49
2022-08-27T06:17:58.902Z,98683.40
2022-08-27T06:20:29.892Z,98681.83
2022-08-27T06:23:01.038Z,98678.02
2022-08-27T06:25:32.377Z,98681.29
2022-08-27T06:28:03.578Z,98682.36
2022-08-27T06:30:37.898Z,98672.28
2022-08-27T06:33:08.901Z,98670.40
2022-08-27T06:35:39.985Z,98674.02
2022-08-27T06:38:11.010Z,98675.60
2022-08-27T06:40:44.800Z,98677.21
2022-08-27T06:43:16.155Z,98675.81
2022-08-27T06:45:46.993Z,98676.76
2022-08-27T06:48:18.143Z,98672.30
2022-08-27T06:50:49.083Z,98673.16
2022-08-27T06:53:19.925Z,98672.07
2022-08-27T06:55:55.575Z,98673.00
2022-08-27T06:58:26.858Z,98673.36
2022-08-27T07:00:57.769Z,98669.21
2022-08-27T07:03:28.688Z,98669.95
2022-08-27T07:06:07.790Z,98668.49
2022-08-27T07:08:39.724Z,98668.70
2022-08-27T07:11:12.453Z,98671.51
2022-08-27T07:13:43.854Z,98675.20
2022-08-27T07:16:17.599Z,98671.70
2022-08-27T07:18:50.457Z,98671.58
2022-08-27T07:21:23.235Z,98674.39
2022-08-27T07:23:56.923Z,98673.60
2022-08-27T07:26:28.652Z,98668.14
2022-08-27T07:28:59.538Z,98667.58
2022-08-27T07:31:30.617Z,98667.16
2022-08-27T07:34:01.642Z,98664.48
2022-08-27T07:36:33.047Z,98664.41
2022-08-27T07:39:04.454Z,98660.98
2022-08-27T07:41:57.579Z,98658.30
2022-08-27T07:44:34.184Z,98654.48
2022-08-27T07:47:05.597Z,98655.25
2022-08-27T07:49:37.869Z,98655.50
2022-08-27T07:52:08.915Z,98655.09
2022-08-27T07:54:41.181Z,98653.04
2022-08-27T07:57:12.886Z,98654.26
2022-08-27T07:59:43.893Z,98655.73
2022-08-27T08:02:15.578Z,98652.07
2022-08-27T08:04:46.697Z,98654.52
2022-08-27T08:07:17.586Z,98659.38
2022-08-27T08:09:48.689Z,98664.88
2022-08-27T08:12:26.286Z,98670.30
2022-08-27T08:14:58.351Z,98671.76
2022-08-27T08:17:29.291Z,98671.69
2022-08-27T08:20:19.994Z,98677.27
2022-08-27T08:22:51.747Z,98672.37
2022-08-27T08:25:24.010Z,98670.34
2022-08-27T08:27:55.552Z,98673.22
2022-08-27T08:30:26.536Z,98673.92
2022-08-27T08:33:02.172Z,98677.73
2022-08-27T08:35:34.922Z,98676.67
2022-08-27T08:38:12.537Z,98671.49
2022-08-27T08:40:48.973Z,98670.11
2022-08-27T08:43:31.653Z,98672.20
2022-08-27T08:46:10.075Z,98672.23
2022-08-27T08:48:45.774Z,98674.69
2022-08-27T08:51:24.452Z,98676.33
2022-08-27T08:53:59.551Z,98679.84
2022-08-27T08:56:40.424Z,98679.86
2022-08-27T08:59:15.871Z,98685.20
2022-08-27T09:01:46.956Z,98681.08
2022-08-27T09:04:18.194Z,98686.43
2022-08-27T09:06:56.062Z,98686.14
2022-08-27T09:09:35.947Z,98687.75
2022-08-27T09:12:15.458Z,98680.86
2022-08-27T09:14:48.537Z,98678.00
2022-08-27T09:17:19.735Z,98672.30
2022-08-27T09:19:52.488Z,98667.67
2022-08-27T09:22:28.603Z,98668.67
2022-08-27T09:25:10.588Z,98674.63
2022-08-27T09:27:44.377Z,98675.70
2022-08-27T09:30:26.421Z,98679.38
2022-08-27T09:33:01.982Z,98678.45
2022-08-27T09:35:48.478Z,98679.83
2022-08-27T09:38:28.681Z,98676.34
2022-08-27T09:41:03.889Z,98674.02
2022-08-27T09:43:37.064Z,98672.77
2022-08-27T09:46:24.354Z,98680.09
2022-08-27T09:48:57.985Z,98681.05
2022-08-27T09:51:31.177Z,98687.89
2022-08-27T09:54:04.434Z,98683.59
2022-08-27T09:56:38.184Z,98690.18
2022-08-27T09:59:12.335Z,98689.57
2022-08-27T10:01:55.557Z,98684.92
2022-08-27T10:04:37.938Z,98687.83
2022-08-27T10:07:31.813Z,98692.27
2022-08-27T10:10:10.833Z,98690.33
2022-08-27T10:12:53.125Z,98692.34
2022-08-27T10:15:26.316Z,98692.21
2022-08-27T10:18:04.823Z,98687.52
2022-08-27T10:20:43.309Z,98685.21
2022-08-27T10:23:30.095Z,98688.72
2022-08-27T10:26:11.182Z,98687.96
2022-08-27T10:28:58.845Z,98689.96
2022-08-27T10:31:40.276Z,98685.08
2022-08-27T10:34:23.714Z,98688.77
2022-08-27T10:37:07.765Z,98688.20
2022-08-27T10:39:56.524Z,98682.75
2022-08-27T10:42:35.576Z,98682.63
2022-08-27T10:45:30.905Z,98681.67
2022-08-27T10:48:12.894Z,98684.98
2022-08-27T10:50:50.672Z,98683.64
2022-08-27T10:53:32.022Z,98683.65
2022-08-27T10:56:14.019Z,98683.34
2022-08-27T10:58:59.104Z,98686.13
2022-08-27T11:01:44.688Z,98685.39
2022-08-27T11:04:19.700Z,98683.63
2022-08-27T11:06:58.161Z,98678.23
2022-08-27T11:09:38.540Z,98679.23
2022-08-27T11:12:14.542Z,98676.23
2022-08-27T11:14:52.566Z,98678.21
2022-08-27T11:17:32.204Z,98676.83
2022-08-27T11:20:09.361Z,98670.72
2022-08-27T11:22:46.133Z,98671.58
2022-08-27T11:25:34.760Z,98671.91
2022-08-27T11:28:07.665Z,98673.90
2022-08-27T11:30:52.256Z,98674.41
2022-08-27T11:33:31.275Z,98672.29
2022-08-27T11:36:26.514Z,98672.15
2022-08-27T11:39:06.501Z,98670.37
2022-08-27T11:42:01.950Z,98669.89
2022-08-27T11:44:33.101Z,98667.43
2022-08-27T11:47:14.412Z,98668.98
2022-08-27T11:49:52.250Z,98666.38
2022-08-27T11:52:30.863Z,98662.44
2022-08-27T11:55:15.786Z,98663.78
2022-08-27T11:57:47.798Z,98664.13
2022-08-27T12:00:23.453Z,98661.28
2022-08-27T12:03:06.421Z,98664.39
2022-08-27T12:05:41.737Z,98666.02
2022-08-27T12:08:28.167Z,98663.91
2022-08-27T12:11:13.012Z,98659.27
2022-08-27T12:13:53.534Z,98657.48
2022-08-27T12:16:31.275Z,98655.52
2022-08-27T12:19:32.290Z,98649.73
2022-08-27T12:22:17.366Z,98651.94
2022-08-27T12:24:57.283Z,98647.27
2022-08-27T12:27:36.128Z,98646.70
2022-08-27T12:30:22.852Z,98649.23
2022-08-27T12:32:54.867Z,98650.05
2022-08-27T12:35:34.240Z,98647.38
2022-08-27T12:38:17.140Z,98644.27
2022-08-27T12:40:52.685Z,98646.39
2022-08-27T12:43:26.463Z,98646.95
2022-08-27T12:46:01.378Z,98643.66
2022-08-27T12:48:35.377Z,98644.73
2022-08-27T12:51:13.721Z,98642.60
2022-08-27T12:53:48.220Z,98640.42
2022-08-27T12:56:38.332Z,98637.66
2022-08-27T12:59:28.199Z,98637.13
2022-08-27T13:02:10.335Z,98637.58
2022-08-27T13:04:43.500Z,98639.50
2022-08-27T13:07:14.430Z,98646.37
2022-08-27T13:09:45.378Z,98645.17
2022-08-27T13:12:20.263Z,98641.01
2022-08-27T13:14:57.198Z,98641.91
2022-08-27T13:17:40.867Z,98639.46
2022-08-27T13:20:21.509Z,98643.90
2022-08-27T13:22:53.605Z,98644.46
2022-08-27T13:25:29.001Z,98644.80
2022-08-27T13:28:08.269Z,98651.85
2022-08-27T13:30:42.273Z,98650.12
2022-08-27T13:33:17.996Z,98645.45
2022-08-27T13:35:49.534Z,98643.56
2022-08-27T13:38:22.647Z,98645.38
2022-08-27T13:40:59.319Z,98647.36
2022-08-27T13:43:39.474Z,98643.27
2022-08-27T13:46:15.169Z,98642.70
2022-08-27T13:48:48.837Z,98638.10
2022-08-27T13:51:29.610Z,98642.13
2022-08-27T13:54:16.154Z,98638.20
2022-08-27T13:57:08.737Z,98645.09
2022-08-27T13:59:43.276Z,98642.30
2022-08-27T14:02:27.455Z,98637.23
2022-08-27T14:05:12.319Z,98624.55
2022-08-27T14:07:47.700Z,98626.75
2022-08-27T14:10:34.925Z,98621.83
2022-08-27T14:13:07.799Z,98618.46
2022-08-27T14:15:40.791Z,98618.23
2022-08-27T14:18:42.230Z,98619.67
2022-08-27T14:21:17.067Z,98614.19
2022-08-27T14:23:48.011Z,98609.92
2022-08-27T14:26:18.997Z,98612.70
2022-08-27T14:28:50.099Z,98611.96
2022-08-27T14:31:21.411Z,98615.57
2022-08-27T14:33:54.985Z,98615.24
2022-08-27T14:36:28.663Z,98620.02
2022-08-27T14:38:59.580Z,98621.33
2022-08-27T14:41:31.259Z,98620.59
2022-08-27T14:44:04.537Z,98622.20
2022-08-27T14:46:42.908Z,98626.23
2022-08-27T14:49:21.385Z,98622.46
2022-08-27T14:51:52.526Z,98625.74
2022-08-27T14:54:23.642Z,98624.52
2022-08-27T14:57:00.360Z,98626.58
2022-08-27T14:59:32.022Z,98626.23
2022-08-27T15:02:07.292Z,98622.14
2022-08-27T15:04:38.417Z,98622.96
2022-08-27T15:07:09.554Z,98620.66
2022-08-27T15:09:40.465Z,98622.54
2022-08-27T15:12:19.367Z,98620.73
2022-08-27T15:14:57.674Z,98619.27
2022-08-27T15:17:34.402Z,98615.90
2022-08-27T15:20:08.335Z,98623.77
2022-08-27T15:22:43.951Z,98623.04
2022-08-27T15:25:16.756Z,98620.75
2022-08-27T15:27:47.794Z,98622.97
2022-08-27T15:30:24.057Z,98629.59
2022-08-27T15:32:55.157Z,98629.59
2022-08-27T15:35:28.698Z,98621.96
2022-08-27T15:38:00.160Z,98620.81
2022-08-27T15:40:34.590Z,98621.23
2022-08-27T15:43:08.653Z,98621.71
2022-08-27T15:45:39.482Z,98618.28
2022-08-27T15:48:11.455Z,98619.68
2022-08-27T15:50:43.778Z,98621.32
2022-08-27T15:53:14.619Z,98628.29
2022-08-27T15:55:46.767Z,98630.17
2022-08-27T15:58:18.157Z,98629.34
2022-08-27T16:00:49.497Z,98624.48
2022-08-27T16:03:36.053Z,98625.45
2022-08-27T16:06:08.929Z,98624.78
2022-08-27T16:08:41.910Z,98626.00
2022-08-27T16:11:13.114Z,98622.58
2022-08-27T16:13:44.125Z,98624.14
2022-08-27T16:16:15.919Z,98627.89
2022-08-27T16:18:46.710Z,98629.30
2022-08-27T16:21:17.443Z,98637.00
2022-08-27T16:23:48.402Z,98632.81
2022-08-27T16:26:19.647Z,98639.52
2022-08-27T16:28:50.428Z,98638.14
2022-08-27T16:31:22.123Z,98639.45
2022-08-27T16:33:53.049Z,98634.95
2022-08-27T16:36:23.954Z,98635.27
2022-08-27T16:38:55.530Z,98629.94
2022-08-27T16:41:26.336Z,98632.23
2022-08-27T16:43:58.856Z,98639.09
2022-08-27T16:46:29.872Z,98634.84
2022-08-27T16:49:18.333Z,98634.75
2022-08-27T16:51:49.381Z,98636.64
2022-08-27T16:54:21.534Z,98635.25
2022-08-27T16:56:52.326Z,98632.70
2022-08-27T16:59:23.231Z,98631.70
2022-08-27T17:01:55.656Z,98628.19
2022-08-27T17:04:32.322Z,98627.93
2022-08-27T17:07:09.290Z,98628.73
2022-08-27T17:09:40.666Z,98627.66
2022-08-27T17:12:14.220Z,98629.06
2022-08-27T17:14:46.690Z,98628.65
2022-08-27T17:17:17.559Z,98632.25
2022-08-27T17:19:48.586Z,98637.98
2022-08-27T17:22:19.376Z,98637.15
2022-08-27T17:24:50.366Z,98642.73
2022-08-27T17:27:21.443Z,98644.86
2022-08-27T17:29:52.218Z,98648.61
2022-08-27T17:32:23.796Z,98651.48
2022-08-27T17:34:54.719Z,98648.69
2022-08-27T17:37:26.146Z,98651.95
2022-08-27T17:39:57.222Z,98651.54
2022-08-27T17:42:29.761Z,98657.34
2022-08-27T17:45:00.796Z,98658.48
2022-08-27T17:47:31.820Z,98663.14
2022-08-27T17:50:02.811Z,98669.70
2022-08-27T17:52:35.678Z,98674.68
2022-08-27T17:55:07.884Z,98671.83
2022-08-27T17:57:40.960Z,98676.72
2022-08-27T18:00:15.188Z,98672.59
2022-08-27T18:02:48.328Z,98672.54
2022-08-27T18:05:23.249Z,98680.36
2022-08-27T18:07:56.131Z,98680.59
2022-08-27T18:10:28.379Z,98683.29
2022-08-27T18:13:00.183Z,98681.55
2022-08-27T18:15:33.174Z,98682.52
2022-08-27T18:18:05.294Z,98688.32
2022-08-27T18:20:40.762Z,98686.52
2022-08-27T18:23:13.679Z,98688.13
2022-08-27T18:25:46.215Z,98691.28
2022-08-27T18:28:18.093Z,98695.38
2022-08-27T18:30:49.925Z,98695.36
2022-08-27T18:33:21.058Z,98694.84
2022-08-27T18:35:52.103Z,98696.88
2022-08-27T18:38:23.024Z,98699.31
2022-08-27T18:40:54.715Z,98706.10
2022-08-27T18:43:29.844Z,98707.40
2022-08-27T18:46:01.099Z,98709.77
2022-08-27T18:48:32.243Z,98710.79
2022-08-27T18:51:05.609Z,98712.79
2022-08-27T18:53:40.584Z,98717.98
2022-08-27T18:56:16.611Z,98724.81
2022-08-27T18:58:49.201Z,98724.23
2022-08-27T19:01:25.326Z,98725.06
2022-08-27T19:03:58.374Z,98724.84
2022-08-27T19:06:29.282Z,98729.36
2022-08-27T19:09:00.775Z,98732.16
2022-08-27T19:11:32.606Z,98735.33
2022-08-27T19:14:03.670Z,98739.17
2022-08-27T19:16:43.218Z,98742.05
2022-08-27T19:19:15.946Z,98740.09
2022-08-27T19:21:51.186Z,98739.42
2022-08-27T19:24:23.459Z,98740.50
2022-08-27T19:26:55.269Z,98747.32
2022-08-27T19:29:26.065Z,98741.92
2022-08-27T19:31:57.198Z,98745.71
2022-08-27T19:34:28.425Z,98744.80
2022-08-27T19:37:00.983Z,98743.26
2022-08-27T19:39:33.918Z,98742.69
2022-08-27T19:42:04.942Z,98744.66
2022-08-27T19:44:36.178Z,98747.20
2022-08-27T19:47:09.174Z,98749.84
2022-08-27T19:49:41.929Z,98748.52
2022-08-27T19:52:13.165Z,98749.02
2022-08-27T19:55:03.340Z,98752.55
2022-08-27T19:57:34.772Z,98748.95
2022-08-27T20:00:07.963Z,98752.46
2022-08-27T20:02:37.704Z,98749.77
2022-08-27T20:05:18.597Z,98751.07
2022-08-27T20:07:51.882Z,98747.31
2022-08-27T20:10:31.825Z,98748.80
2022-08-27T20:13:07.941Z,98749.39
2022-08-27T20:15:39.827Z,98747.91
2022-08-27T20:18:13.036Z,98747.92
2022-08-27T20:20:44.094Z,98743.34
2022-08-27T20:23:14.888Z,98744.48
2022-08-27T20:25:46.078Z,98749.40
2022-08-27T20:28:38.467Z,98741.30
2022-08-27T20:31:08.436Z,98745.30
2022-08-27T20:33:39.701Z,98749.08
2022-08-27T20:36:13.116Z,98747.04
2022-08-27T20:38:44.166Z,98744.67
2022-08-27T20:41:15.096Z,98747.54
2022-08-27T20:43:46.065Z,98743.52
2022-08-27T20:46:17.530Z,98740.83
2022-08-27T20:48:48.588Z,98740.42
2022-08-27T20:51:20.200Z,98740.27
2022-08-27T20:53:51.583Z,98743.80
2022-08-27T20:56:22.672Z,98742.55
2022-08-27T20:59:19.464Z,98744.11
2022-08-27T21:01:50.515Z,98736.34
2022-08-27T21:04:21.325Z,98735.61
2022-08-27T21:06:52.332Z,98737.23
2022-08-27T21:09:23.376Z,98738.14
2022-08-27T21:11:56.643Z,98740.68
2022-08-27T21:14:27.923Z,98740.60
2022-08-27T21:16:59.737Z,98743.63
2022-08-27T21:19:30.598Z,98744.60
2022-08-27T21:22:06.075Z,98743.21
2022-08-27T21:24:37.097Z,98744.70
2022-08-27T21:27:08.572Z,98740.70
2022-08-27T21:29:39.288Z,98738.64
2022-08-27T21:32:12.123Z,98737.41
2022-08-27T21:34:43.316Z,98734.60
2022-08-27T21:37:15.798Z,98737.36
2022-08-27T21:39:46.709Z,98740.75
2022-08-27T21:42:17.622Z,98745.37
2022-08-27T21:44:48.476Z,98748.62
2022-08-27T21:47:19.266Z,98752.60
2022-08-27T21:49:50.158Z,98754.10
2022-08-27T21:52:20.999Z,98748.88
2022-08-27T21:54:51.773Z,98749.10
2022-08-27T21:57:22.650Z,98751.13
2022-08-27T21:59:53.802Z,98755.18
2022-08-27T22:02:39.737Z,98759.14
2022-08-27T22:05:12.377Z,98760.96
2022-08-27T22:07:43.138Z,98761.41
2022-08-27T22:10:14.260Z,98762.27
2022-08-27T22:12:45.091Z,98762.70
2022-08-27T22:15:16.163Z,98760.69
2022-08-27T22:17:51.164Z,98762.86
2022-08-27T22:20:23.305Z,98760.87
2022-08-27T22:22:54.082Z,98770.46
2022-08-27T22:25:24.930Z,98769.02
2022-08-27T22:27:56.403Z,98770.70
2022-08-27T22:30:27.237Z,98775.59
2022-08-27T22:32:58.494Z,98773.84
2022-08-27T22:35:29.809Z,98765.77
2022-08-27T22:38:00.762Z,98764.55
2022-08-27T22:40:33.592Z,98764.10
2022-08-27T22:43:04.698Z,98767.97
2022-08-27T22:45:35.945Z,98768.02
2022-08-27T22:48:07.223Z,98769.08
2022-08-27T22:50:38.135Z,98770.57
2022-08-27T22:53:09.543Z,98771.83
2022-08-27T22:55:40.465Z,98766.32
2022-08-27T22:58:11.554Z,98763.41
2022-08-27T23:00:42.807Z,98767.05
2022-08-27T23:03:13.897Z,98767.38
2022-08-27T23:05:45.050Z,98767.28
2022-08-27T23:08:16.339Z,98761.88
2022-08-27T23:10:47.135Z,98761.53
2022-08-27T23:13:17.859Z,98757.98
2022-08-27T23:15:48.667Z,98758.36
2022-08-27T23:18:19.468Z,98764.04
2022-08-27T23:20:50.203Z,98766.70
2022-08-27T23:23:20.996Z,98769.61
2022-08-27T23:26:09.760Z,98774.81
2022-08-27T23:28:40.940Z,98779.52
2022-08-27T23:31:12.190Z,98780.38
2022-08-27T23:33:43.121Z,98777.51
2022-08-27T23:36:14.004Z,98776.17
2022-08-27T23:38:46.148Z,98777.54
2022-08-27T23:41:17.093Z,98780.43
2022-08-27T23:43:48.048Z,98781.70
2022-08-27T23:46:19.278Z,98781.65
2022-08-27T23:48:49.985Z,98777.02
2022-08-27T23:51:23.456Z,98779.11
2022-08-27T23:53:54.244Z,98780.77
2022-08-27T23:56:30.245Z,98780.28
2022-08-27T23:59:01.408Z,98772.84
